createdAt,value
2018-06-16T00:02:15.280Z,2.57
2018-06-16T00:04:42.179Z,3.20
2018-06-16T00:07:09.120Z,3.20
2018-06-16T00:09:36.026Z,3.03
2018-06-16T00:12:02.973Z,2.67
2018-06-16T00:14:29.888Z,2.60
2018-06-16T00:16:56.856Z,2.63
2018-06-16T00:19:23.781Z,2.27
2018-06-16T00:21:50.701Z,2.87
2018-06-16T00:24:17.736Z,2.60
2018-06-16T00:26:44.676Z,2.37
2018-06-16T00:29:11.592Z,2.37
2018-06-16T00:31:38.484Z,2.87
2018-06-16T00:34:05.395Z,2.73
2018-06-16T00:36:32.345Z,2.50
2018-06-16T00:38:59.252Z,2.10
2018-06-16T00:41:26.136Z,2.30
2018-06-16T00:43:53.033Z,2.23
2018-06-16T00:46:19.960Z,2.50
2018-06-16T00:48:47.170Z,2.10
2018-06-16T00:51:14.073Z,2.10
2018-06-16T00:53:40.966Z,2.13
2018-06-16T00:56:07.852Z,2.07
2018-06-16T00:58:34.737Z,2.33
2018-06-16T01:01:01.629Z,2.30
2018-06-16T01:03:28.534Z,2.00
2018-06-16T01:05:55.401Z,2.03
2018-06-16T01:08:22.568Z,2.20
2018-06-16T01:10:50.112Z,2.03
2018-06-16T01:13:17.017Z,2.17
2018-06-16T01:15:43.888Z,2.10
2018-06-16T01:18:10.788Z,2.30
2018-06-16T01:20:37.664Z,1.80
2018-06-16T01:23:04.563Z,2.13
2018-06-16T01:25:31.451Z,2.37
2018-06-16T01:27:59.296Z,2.43
2018-06-16T01:30:26.176Z,2.60
2018-06-16T01:32:53.056Z,2.40
2018-06-16T01:35:19.949Z,2.70
2018-06-16T01:37:46.857Z,2.10
2018-06-16T01:40:13.744Z,2.10
2018-06-16T01:42:40.640Z,2.10
2018-06-16T01:45:07.605Z,2.00
2018-06-16T01:47:34.486Z,1.80
2018-06-16T01:50:01.397Z,1.80
2018-06-16T01:52:28.273Z,1.90
2018-06-16T01:54:55.169Z,1.90
2018-06-16T01:57:22.045Z,2.10
2018-06-16T01:59:48.935Z,1.90
2018-06-16T02:02:15.825Z,2.00
2018-06-16T02:04:42.715Z,1.87
2018-06-16T02:07:09.601Z,1.80
2018-06-16T02:09:36.500Z,1.93
2018-06-16T02:12:03.601Z,2.50
2018-06-16T02:14:30.500Z,1.87
2018-06-16T02:16:57.381Z,2.10
2018-06-16T02:19:24.289Z,1.90
2018-06-16T02:21:51.197Z,1.90
2018-06-16T02:24:18.130Z,2.03
2018-06-16T02:26:45.042Z,2.13
2018-06-16T02:29:11.946Z,2.30
2018-06-16T02:31:38.853Z,2.10
2018-06-16T02:34:05.745Z,1.90
2018-06-16T02:36:32.644Z,1.83
2018-06-16T02:38:59.552Z,2.20
2018-06-16T02:41:26.469Z,1.83
2018-06-16T02:43:53.353Z,2.13
2018-06-16T02:46:20.264Z,2.13
2018-06-16T02:48:47.152Z,2.13
2018-06-16T02:51:14.082Z,2.13
2018-06-16T02:53:40.977Z,2.37
2018-06-16T02:56:07.898Z,2.13
2018-06-16T02:58:34.855Z,2.20
2018-06-16T03:01:01.765Z,2.37
2018-06-16T03:03:28.723Z,2.13
2018-06-16T03:05:55.653Z,2.30
2018-06-16T03:08:22.562Z,2.30
2018-06-16T03:10:49.478Z,2.43
2018-06-16T03:13:16.369Z,2.20
2018-06-16T03:15:43.259Z,2.40
2018-06-16T03:18:10.416Z,2.30
2018-06-16T03:20:37.300Z,2.23
2018-06-16T03:23:04.257Z,2.30
2018-06-16T03:25:31.188Z,1.87
2018-06-16T03:27:58.093Z,2.20
2018-06-16T03:30:25.002Z,2.23
2018-06-16T03:32:51.937Z,2.20
2018-06-16T03:35:18.840Z,2.03
2018-06-16T03:37:45.776Z,1.90
2018-06-16T03:40:12.686Z,2.10
2018-06-16T03:42:39.653Z,2.20
2018-06-16T03:45:06.609Z,2.17
2018-06-16T03:47:33.538Z,2.60
2018-06-16T03:50:00.453Z,2.40
2018-06-16T03:52:27.393Z,2.40
2018-06-16T03:54:54.297Z,2.20
2018-06-16T03:57:21.201Z,2.13
2018-06-16T03:59:48.081Z,2.33
2018-06-16T04:02:14.984Z,2.33
2018-06-16T04:04:41.879Z,2.13
2018-06-16T04:07:08.775Z,2.33
2018-06-16T04:09:35.674Z,2.10
2018-06-16T04:12:02.577Z,2.03
2018-06-16T04:14:29.461Z,2.50
2018-06-16T04:16:56.386Z,2.50
2018-06-16T04:19:23.277Z,2.60
2018-06-16T04:21:50.178Z,2.57
2018-06-16T04:24:17.078Z,2.17
2018-06-16T04:26:44.000Z,2.50
2018-06-16T04:29:10.921Z,2.33
2018-06-16T04:31:37.837Z,2.53
2018-06-16T04:34:04.769Z,2.80
2018-06-16T04:36:31.722Z,2.07
2018-06-16T04:38:58.622Z,2.43
2018-06-16T04:41:25.553Z,2.30
2018-06-16T04:43:52.490Z,2.40
2018-06-16T04:46:19.394Z,2.50
2018-06-16T04:48:46.347Z,2.40
2018-06-16T04:51:13.258Z,2.80
2018-06-16T04:53:40.174Z,2.80
2018-06-16T04:56:07.095Z,2.50
2018-06-16T04:58:34.015Z,2.80
2018-06-16T05:01:00.929Z,2.80
2018-06-16T05:03:27.861Z,2.60
2018-06-16T05:05:54.788Z,2.57
2018-06-16T05:08:21.709Z,2.70
2018-06-16T05:10:48.625Z,2.50
2018-06-16T05:13:15.561Z,2.53
2018-06-16T05:15:42.490Z,2.73
2018-06-16T05:18:09.449Z,2.70
2018-06-16T05:20:36.361Z,2.70
2018-06-16T05:23:03.303Z,2.60
2018-06-16T05:25:30.223Z,3.10
2018-06-16T05:27:57.149Z,2.90
2018-06-16T05:30:24.064Z,2.87
2018-06-16T05:32:50.997Z,2.97
2018-06-16T05:35:17.921Z,3.30
2018-06-16T05:37:44.834Z,3.00
2018-06-16T05:40:11.783Z,3.07
2018-06-16T05:42:38.706Z,3.20
2018-06-16T05:45:05.642Z,3.10
2018-06-16T05:47:32.561Z,2.80
2018-06-16T05:49:59.481Z,3.20
2018-06-16T05:52:26.481Z,3.40
2018-06-16T05:54:53.621Z,3.47
2018-06-16T05:57:20.623Z,3.27
2018-06-16T05:59:47.557Z,3.60
2018-06-16T06:02:14.478Z,3.20
2018-06-16T06:04:41.405Z,3.43
2018-06-16T06:07:08.493Z,3.53
2018-06-16T06:09:35.427Z,3.50
2018-06-16T06:12:02.369Z,3.73
2018-06-16T06:14:29.298Z,3.30
2018-06-16T06:16:56.230Z,3.70
2018-06-16T06:19:23.149Z,3.70
2018-06-16T06:21:50.081Z,3.13
2018-06-16T06:24:17.009Z,3.40
2018-06-16T06:26:43.933Z,3.83
2018-06-16T06:29:10.857Z,3.97
2018-06-16T06:31:37.793Z,3.80
2018-06-16T06:34:04.739Z,4.27
2018-06-16T06:36:31.652Z,3.37
2018-06-16T06:38:58.573Z,3.83
2018-06-16T06:41:25.493Z,4.83
2018-06-16T06:43:52.419Z,4.13
2018-06-16T06:46:19.358Z,4.37
2018-06-16T06:48:46.306Z,4.00
2018-06-16T06:51:13.227Z,4.23
2018-06-16T06:53:40.188Z,4.10
2018-06-16T06:56:07.107Z,3.87
2018-06-16T06:58:34.033Z,4.00
2018-06-16T07:01:00.944Z,4.17
2018-06-16T07:03:27.872Z,4.57
2018-06-16T07:05:54.801Z,4.07
2018-06-16T07:08:22.181Z,3.97
2018-06-16T07:10:49.161Z,4.57
2018-06-16T07:13:16.043Z,3.90
2018-06-16T07:15:42.982Z,3.70
2018-06-16T07:18:09.906Z,3.93
2018-06-16T07:20:36.936Z,4.73
2018-06-16T07:23:03.854Z,4.00
2018-06-16T07:25:30.795Z,4.50
2018-06-16T07:27:57.705Z,4.70
2018-06-16T07:30:24.628Z,4.67
2018-06-16T07:32:51.545Z,4.03
2018-06-16T07:35:18.459Z,4.20
2018-06-16T07:37:45.365Z,4.70
2018-06-16T07:40:12.318Z,4.67
2018-06-16T07:42:39.247Z,4.10
2018-06-16T07:45:06.189Z,4.47
2018-06-16T07:47:33.117Z,4.60
2018-06-16T07:50:00.054Z,4.43
2018-06-16T07:52:26.970Z,4.40
2018-06-16T07:54:53.943Z,5.40
2018-06-16T07:57:20.859Z,5.03
2018-06-16T07:59:47.789Z,4.77
2018-06-16T08:02:14.706Z,4.90
2018-06-16T08:04:41.632Z,4.87
2018-06-16T08:07:08.558Z,4.60
2018-06-16T08:09:35.494Z,4.70
2018-06-16T08:12:02.406Z,4.40
2018-06-16T08:14:29.460Z,4.60
2018-06-16T08:16:56.369Z,4.50
2018-06-16T08:19:23.274Z,4.90
2018-06-16T08:21:50.269Z,5.20
2018-06-16T08:24:19.322Z,4.90
2018-06-16T08:26:46.436Z,4.97
2018-06-16T08:29:13.349Z,4.50
2018-06-16T08:31:40.264Z,5.07
2018-06-16T08:34:07.268Z,4.50
2018-06-16T08:36:34.174Z,4.63
2018-06-16T08:39:01.054Z,5.67
2018-06-16T08:41:27.956Z,4.97
2018-06-16T08:43:54.847Z,5.67
2018-06-16T08:46:21.725Z,4.40
2018-06-16T08:48:48.633Z,4.70
2018-06-16T08:51:15.521Z,4.40
2018-06-16T08:53:42.401Z,4.80
2018-06-16T08:56:09.289Z,4.63
2018-06-16T08:58:36.217Z,4.63
2018-06-16T09:01:03.197Z,4.80
2018-06-16T09:03:30.102Z,4.43
2018-06-16T09:05:56.997Z,4.43
2018-06-16T09:08:23.890Z,4.40
2018-06-16T09:10:50.797Z,4.93
2018-06-16T09:13:17.669Z,4.40
2018-06-16T09:15:44.557Z,4.77
2018-06-16T09:18:11.426Z,4.23
2018-06-16T09:20:38.326Z,4.80
2018-06-16T09:23:05.210Z,5.10
2018-06-16T09:25:32.649Z,4.67
2018-06-16T09:27:59.547Z,4.87
2018-06-16T09:30:26.419Z,4.23
2018-06-16T09:32:53.424Z,4.80
2018-06-16T09:35:20.340Z,4.87
2018-06-16T09:37:47.237Z,4.57
2018-06-16T09:40:14.126Z,4.53
2018-06-16T09:42:41.197Z,4.23
2018-06-16T09:45:08.110Z,4.57
2018-06-16T09:47:35.030Z,4.87
2018-06-16T09:50:01.954Z,4.77
2018-06-16T09:52:28.844Z,4.73
2018-06-16T09:54:56.008Z,4.37
2018-06-16T09:57:22.893Z,4.13
2018-06-16T09:59:50.173Z,4.00
2018-06-16T10:02:17.063Z,4.00
2018-06-16T10:04:43.946Z,3.60
2018-06-16T10:07:12.593Z,4.23
2018-06-16T10:09:39.489Z,4.10
2018-06-16T10:12:07.222Z,4.10
2018-06-16T10:14:34.105Z,4.17
2018-06-16T10:17:00.996Z,3.63
2018-06-16T10:19:29.348Z,3.93
2018-06-16T10:21:56.248Z,4.20
2018-06-16T10:24:23.117Z,3.00
2018-06-16T10:26:50.026Z,3.50
2018-06-16T10:29:19.105Z,3.17
2018-06-16T10:31:46.019Z,3.27
2018-06-16T10:34:12.926Z,3.50
2018-06-16T10:36:41.910Z,3.17
2018-06-16T10:39:09.137Z,3.47
2018-06-16T10:41:36.042Z,3.63
2018-06-16T10:44:03.066Z,3.63
2018-06-16T10:46:30.890Z,3.83
2018-06-16T10:48:57.779Z,3.40
2018-06-16T10:51:24.681Z,3.50
2018-06-16T10:53:53.718Z,3.83
2018-06-16T10:56:20.637Z,3.73
2018-06-16T10:58:47.527Z,3.83
2018-06-16T11:01:15.438Z,3.90
2018-06-16T11:03:42.357Z,3.80
2018-06-16T11:06:09.241Z,4.27
2018-06-16T11:08:36.144Z,3.60
2018-06-16T11:11:03.061Z,3.60
2018-06-16T11:13:30.261Z,4.73
2018-06-16T11:15:57.157Z,3.97
2018-06-16T11:18:24.666Z,4.13
2018-06-16T11:20:51.553Z,3.97
2018-06-16T11:23:18.473Z,4.63
2018-06-16T11:25:45.381Z,5.67
2018-06-16T11:28:12.281Z,4.67
2018-06-16T11:30:39.177Z,4.60
2018-06-16T11:33:06.083Z,5.60
2018-06-16T11:35:32.957Z,4.47
2018-06-16T11:37:59.848Z,4.67
2018-06-16T11:40:26.754Z,4.90
2018-06-16T11:42:53.743Z,5.20
2018-06-16T11:45:20.635Z,4.77
2018-06-16T11:47:47.526Z,4.80
2018-06-16T11:50:14.410Z,4.70
2018-06-16T11:52:41.300Z,5.00
2018-06-16T11:55:08.177Z,4.53
2018-06-16T11:57:35.122Z,4.73
2018-06-16T12:00:01.982Z,5.20
2018-06-16T12:02:28.905Z,4.20
2018-06-16T12:04:55.890Z,4.30
2018-06-16T12:07:22.779Z,3.97
2018-06-16T12:09:49.644Z,4.77
2018-06-16T12:12:16.546Z,4.10
2018-06-16T12:14:43.432Z,4.40
2018-06-16T12:17:10.322Z,4.53
2018-06-16T12:19:37.213Z,5.17
2018-06-16T12:22:04.088Z,5.50
2018-06-16T12:24:30.994Z,4.90
2018-06-16T12:26:57.922Z,5.20
2018-06-16T12:29:24.806Z,4.23
2018-06-16T12:31:51.693Z,4.63
2018-06-16T12:34:18.594Z,5.30
2018-06-16T12:36:45.474Z,5.30
2018-06-16T12:39:12.365Z,4.90
2018-06-16T12:41:39.366Z,5.40
2018-06-16T12:44:06.514Z,5.00
2018-06-16T12:46:33.399Z,4.87
2018-06-16T12:49:00.281Z,5.17
2018-06-16T12:51:27.173Z,4.70
2018-06-16T12:53:54.058Z,4.70
2018-06-16T12:56:20.927Z,4.73
2018-06-16T12:58:47.904Z,4.27
2018-06-16T13:01:14.786Z,4.23
2018-06-16T13:03:41.666Z,4.77
2018-06-16T13:06:08.546Z,5.30
2018-06-16T13:08:35.427Z,4.77
2018-06-16T13:11:02.308Z,4.37
2018-06-16T13:13:29.273Z,4.83
2018-06-16T13:15:56.183Z,5.00
2018-06-16T13:18:23.071Z,4.60
2018-06-16T13:20:49.950Z,3.63
2018-06-16T13:23:16.845Z,3.77
2018-06-16T13:25:43.802Z,3.30
2018-06-16T13:28:10.733Z,3.60
2018-06-16T13:30:37.644Z,3.17
2018-06-16T13:33:04.581Z,3.63
2018-06-16T13:35:31.478Z,3.30
2018-06-16T13:37:58.396Z,3.60
2018-06-16T13:40:25.316Z,3.50
2018-06-16T13:42:52.233Z,3.73
2018-06-16T13:45:19.153Z,3.17
2018-06-16T13:47:46.054Z,3.50
2018-06-16T13:50:12.966Z,3.63
2018-06-16T13:52:39.883Z,3.63
2018-06-16T13:55:06.818Z,3.57
2018-06-16T13:57:33.739Z,3.27
2018-06-16T14:00:00.638Z,3.60
2018-06-16T14:02:27.525Z,3.50
2018-06-16T14:04:54.434Z,3.43
2018-06-16T14:07:21.413Z,3.77
2018-06-16T14:09:48.293Z,3.87
2018-06-16T14:12:15.215Z,3.80
2018-06-16T14:14:42.124Z,4.00
2018-06-16T14:17:09.021Z,4.17
2018-06-16T14:19:35.933Z,3.73
2018-06-16T14:22:02.870Z,3.87
2018-06-16T14:24:29.821Z,4.60
2018-06-16T14:26:56.726Z,5.80
2018-06-16T14:29:23.646Z,5.53
2018-06-16T14:31:50.570Z,5.67
2018-06-16T14:34:20.627Z,4.83
2018-06-16T14:36:50.157Z,4.80
2018-06-16T14:39:19.442Z,4.90
2018-06-16T14:41:46.326Z,4.80
2018-06-16T14:44:13.289Z,4.53
2018-06-16T14:46:40.205Z,4.40
2018-06-16T14:49:07.097Z,4.67
2018-06-16T14:51:33.985Z,4.40
2018-06-16T14:54:01.150Z,4.70
2018-06-16T14:56:28.087Z,4.53
2018-06-16T14:58:54.994Z,4.63
2018-06-16T15:01:21.886Z,5.07
2018-06-16T15:03:48.813Z,4.40
2018-06-16T15:06:15.726Z,4.70
2018-06-16T15:08:42.625Z,5.10
2018-06-16T15:11:09.539Z,4.83
2018-06-16T15:13:36.574Z,4.93
2018-06-16T15:16:03.516Z,4.37
2018-06-16T15:18:30.426Z,4.60
2018-06-16T15:20:57.355Z,4.40
2018-06-16T15:23:24.277Z,4.93
2018-06-16T15:25:51.217Z,8.90
2018-06-16T15:28:18.158Z,12.03
2018-06-16T15:30:45.089Z,13.57
2018-06-16T15:33:12.017Z,12.90
2018-06-16T15:35:38.945Z,14.93
2018-06-16T15:38:05.878Z,13.77
2018-06-16T15:40:32.814Z,13.80
2018-06-16T15:42:59.733Z,13.10
2018-06-16T15:45:26.653Z,12.60
2018-06-16T15:47:53.553Z,12.40
2018-06-16T15:50:20.461Z,14.40
2018-06-16T15:52:47.396Z,13.33
2018-06-16T15:55:14.310Z,12.40
2018-06-16T15:57:41.209Z,12.37
2018-06-16T16:00:08.130Z,13.00
2018-06-16T16:02:35.045Z,11.77
2018-06-16T16:05:01.969Z,10.83
2018-06-16T16:07:28.878Z,11.87
2018-06-16T16:09:56.094Z,11.17
2018-06-16T16:12:22.993Z,11.63
2018-06-16T16:14:49.889Z,11.80
2018-06-16T16:17:17.775Z,11.63
2018-06-16T16:19:44.686Z,11.90
2018-06-16T16:22:11.745Z,11.87
2018-06-16T16:24:38.645Z,12.20
2018-06-16T16:27:05.585Z,13.27
2018-06-16T16:29:32.478Z,14.90
2018-06-16T16:31:59.423Z,11.90
2018-06-16T16:34:26.321Z,13.07
2018-06-16T16:36:53.223Z,12.20
2018-06-16T16:39:20.126Z,12.40
2018-06-16T16:41:47.030Z,11.63
2018-06-16T16:44:13.917Z,11.07
2018-06-16T16:46:40.817Z,14.27
2018-06-16T16:49:07.937Z,12.27
2018-06-16T16:51:34.935Z,11.70
2018-06-16T16:54:02.067Z,11.93
2018-06-16T16:56:28.989Z,12.73
2018-06-16T16:58:55.898Z,11.67
2018-06-16T17:01:22.810Z,10.17
2018-06-16T17:03:49.721Z,9.70
2018-06-16T17:06:16.633Z,8.77
2018-06-16T17:08:43.518Z,8.80
2018-06-16T17:11:10.417Z,9.90
2018-06-16T17:13:37.309Z,9.87
2018-06-16T17:16:04.277Z,11.70
2018-06-16T17:18:31.176Z,11.90
2018-06-16T17:20:58.082Z,13.30
2018-06-16T17:23:24.986Z,14.97
2018-06-16T17:25:51.940Z,19.23
2018-06-16T17:28:18.845Z,19.70
2018-06-16T17:30:45.750Z,22.03
2018-06-16T17:33:12.654Z,23.27
2018-06-16T17:35:39.590Z,23.50
2018-06-16T17:38:06.777Z,25.50
2018-06-16T17:40:33.689Z,25.23
2018-06-16T17:43:00.613Z,26.03
2018-06-16T17:45:27.531Z,25.80
2018-06-16T17:48:01.338Z,26.97
2018-06-16T17:50:28.237Z,25.87
2018-06-16T17:52:55.194Z,25.90
2018-06-16T17:55:22.121Z,24.97
2018-06-16T17:57:49.035Z,24.43
2018-06-16T18:00:15.953Z,25.30
2018-06-16T18:02:42.866Z,24.97
2018-06-16T18:05:09.782Z,22.67
2018-06-16T18:07:36.725Z,24.30
2018-06-16T18:10:04.312Z,23.43
2018-06-16T18:12:31.222Z,24.40
2018-06-16T18:14:58.125Z,24.47
2018-06-16T18:17:26.808Z,22.80
2018-06-16T18:19:53.737Z,21.60
2018-06-16T18:22:20.645Z,20.17
2018-06-16T18:24:47.570Z,20.10
2018-06-16T18:27:14.500Z,19.93
2018-06-16T18:29:45.719Z,20.77
2018-06-16T18:32:12.657Z,20.57
2018-06-16T18:34:39.553Z,21.00
2018-06-16T18:37:06.469Z,21.60
2018-06-16T18:39:33.382Z,20.23
2018-06-16T18:42:00.309Z,21.47
2018-06-16T18:44:27.223Z,19.67
2018-06-16T18:46:54.144Z,18.93
2018-06-16T18:49:21.037Z,18.70
2018-06-16T18:51:47.953Z,17.93
2018-06-16T18:54:14.875Z,19.00
2018-06-16T18:56:41.819Z,19.20
2018-06-16T18:59:08.723Z,19.33
2018-06-16T19:01:35.657Z,19.20
2018-06-16T19:04:02.589Z,19.57
2018-06-16T19:06:29.497Z,19.00
2018-06-16T19:08:56.421Z,20.33
2018-06-16T19:11:23.334Z,20.03
2018-06-16T19:13:50.245Z,19.43
2018-06-16T19:16:17.159Z,19.30
2018-06-16T19:18:44.085Z,19.50
2018-06-16T19:21:10.981Z,20.03
2018-06-16T19:23:39.190Z,18.60
2018-06-16T19:26:06.425Z,19.00
2018-06-16T19:28:33.393Z,19.37
2018-06-16T19:31:00.253Z,18.23
2018-06-16T19:33:27.173Z,19.40
2018-06-16T19:36:00.897Z,18.77
2018-06-16T19:38:27.955Z,18.63
2018-06-16T19:40:54.873Z,18.80
2018-06-16T19:43:21.891Z,19.40
2018-06-16T19:45:49.074Z,18.60
2018-06-16T19:48:15.981Z,19.20
2018-06-16T19:50:42.878Z,19.07
2018-06-16T19:53:09.797Z,20.37
2018-06-16T19:55:36.704Z,19.23
2018-06-16T19:58:03.654Z,19.87
2018-06-16T20:00:30.577Z,18.87
2018-06-16T20:02:57.493Z,18.83
2018-06-16T20:05:24.405Z,19.83
2018-06-16T20:07:51.326Z,20.23
2018-06-16T20:10:18.229Z,20.03
2018-06-16T20:12:45.201Z,19.87
2018-06-16T20:15:12.093Z,19.13
2018-06-16T20:17:39.014Z,20.07
2018-06-16T20:20:06.644Z,20.73
2018-06-16T20:22:33.596Z,20.13
2018-06-16T20:25:00.503Z,20.03
2018-06-16T20:27:31.462Z,19.33
2018-06-16T20:29:58.490Z,20.73
2018-06-16T20:32:25.393Z,20.90
2018-06-16T20:34:52.333Z,20.57
2018-06-16T20:37:19.297Z,18.57
2018-06-16T20:39:46.169Z,19.80
2018-06-16T20:42:13.046Z,20.87
2018-06-16T20:44:39.957Z,20.80
2018-06-16T20:47:06.839Z,21.77
2018-06-16T20:49:33.737Z,20.63
2018-06-16T20:52:00.629Z,21.10
2018-06-16T20:54:27.524Z,21.40
2018-06-16T20:56:54.438Z,21.87
2018-06-16T20:59:21.350Z,21.77
2018-06-16T21:01:48.265Z,26.43
2018-06-16T21:04:16.227Z,23.67
2018-06-16T21:06:43.137Z,25.77
2018-06-16T21:09:11.252Z,25.77
2018-06-16T21:11:38.141Z,26.33
2018-06-16T21:14:05.055Z,26.70
2018-06-16T21:16:31.975Z,28.07
2018-06-16T21:18:58.885Z,25.33
2018-06-16T21:21:25.820Z,26.77
2018-06-16T21:23:52.685Z,29.23
2018-06-16T21:26:19.599Z,26.83
2018-06-16T21:28:46.585Z,28.20
2018-06-16T21:31:13.487Z,27.63
2018-06-16T21:33:40.417Z,26.37
2018-06-16T21:36:07.322Z,27.20
2018-06-16T21:38:34.226Z,31.37
2018-06-16T21:41:01.124Z,28.73
2018-06-16T21:43:28.062Z,27.33
2018-06-16T21:45:54.965Z,27.57
2018-06-16T21:48:21.886Z,28.13
2018-06-16T21:50:48.855Z,27.87
2018-06-16T21:53:15.757Z,27.60
2018-06-16T21:55:42.674Z,27.07
2018-06-16T21:58:09.580Z,26.57
2018-06-16T22:00:36.514Z,27.53
2018-06-16T22:03:04.881Z,27.83
2018-06-16T22:05:31.866Z,29.97
2018-06-16T22:08:04.565Z,28.97
2018-06-16T22:10:31.543Z,28.83
2018-06-16T22:12:58.389Z,28.20
2018-06-16T22:15:25.335Z,28.43
2018-06-16T22:17:52.238Z,28.33
2018-06-16T22:20:19.146Z,28.80
2018-06-16T22:22:46.061Z,28.37
2018-06-16T22:25:13.377Z,28.53
2018-06-16T22:27:40.744Z,28.47
2018-06-16T22:30:07.682Z,28.00
2018-06-16T22:32:35.190Z,27.90
2018-06-16T22:35:02.118Z,28.77
2018-06-16T22:37:29.021Z,27.40
2018-06-16T22:39:55.936Z,27.13
2018-06-16T22:42:22.857Z,27.07
2018-06-16T22:44:49.757Z,27.43
2018-06-16T22:47:16.644Z,27.83
2018-06-16T22:49:43.713Z,28.47
2018-06-16T22:52:10.677Z,28.13
2018-06-16T22:54:37.625Z,27.07
2018-06-16T22:57:04.525Z,27.27
2018-06-16T22:59:31.429Z,26.90
2018-06-16T23:01:58.323Z,26.93
2018-06-16T23:04:25.209Z,27.07
2018-06-16T23:06:52.114Z,27.40
2018-06-16T23:09:19.009Z,27.93
2018-06-16T23:11:45.902Z,30.47
2018-06-16T23:14:12.806Z,32.17
2018-06-16T23:16:39.803Z,32.00
2018-06-16T23:19:06.689Z,27.23
2018-06-16T23:21:33.629Z,27.77
2018-06-16T23:24:06.558Z,28.17
2018-06-16T23:26:33.492Z,29.40
2018-06-16T23:29:00.425Z,29.57
2018-06-16T23:31:27.342Z,33.10
2018-06-16T23:33:54.276Z,33.67
2018-06-16T23:36:21.221Z,32.07
2018-06-16T23:38:48.116Z,33.37
2018-06-16T23:41:15.034Z,31.90
2018-06-16T23:43:41.933Z,32.73
2018-06-16T23:46:08.847Z,37.37
2018-06-16T23:48:35.753Z,35.13
2018-06-16T23:51:02.665Z,36.60
2018-06-16T23:53:29.573Z,34.47
2018-06-16T23:55:56.511Z,31.03
2018-06-16T23:58:23.416Z,30.67
